Time;durP1;ratioP1;P1;durP2;ratioP2;P2;SDS_P1;SDS_P2;PMS_P1;PMS_P2;Temp;Humidity;BMP_temperature;BMP_pressure;BME280_temperature;BME280_humidity;BME280_pressure;Samples;Min_cycle;Max_cycle;Signal;HPM_P1;HPM_P2
2022/08/23 00:03:44;;;;;;;7.32;3.78;;;;;;;18.40;66.31;101368.59;10334813;28;20038;-67
2022/08/23 00:08:45;;;;;;;8.30;4.15;;;;;;;18.33;66.36;101374.22;10317994;28;20038;-67
2022/08/23 00:13:45;;;;;;;7.22;4.85;;;;;;;18.30;66.76;101372.78;10334493;28;20026;-67
2022/08/23 00:18:45;;;;;;;4.97;4.45;;;;;;;18.27;67.05;101370.50;10336005;28;20034;-67
2022/08/23 00:23:46;;;;;;;6.95;4.07;;;;;;;18.29;67.09;101367.53;10335263;28;20343;-67
2022/08/23 00:28:48;;;;;;;4.30;3.75;;;;;;;18.44;67.71;101365.16;10335141;28;20042;-67
2022/08/23 00:33:48;;;;;;;17.23;4.50;;;;;;;18.56;67.88;101370.63;10334499;28;20069;-67
2022/08/23 00:38:49;;;;;;;11.52;5.05;;;;;;;18.67;67.45;101366.22;10335059;28;20034;-68
2022/08/23 00:49:10;;;;;;;8.57;4.45;;;;;;;18.80;66.95;101361.34;10319355;28;20034;-68
2022/08/23 00:54:10;;;;;;;5.22;3.20;;;;;;;18.90;67.31;101357.16;10301319;28;20104;-67
2022/08/23 00:59:10;;;;;;;5.82;4.05;;;;;;;18.95;67.59;101352.63;10334915;28;20038;-67
2022/08/23 01:04:11;;;;;;;13.40;4.13;;;;;;;19.00;68.43;101346.38;10316276;28;20568;-67
2022/08/23 01:09:14;;;;;;;8.07;4.47;;;;;;;19.09;69.08;101347.69;10316093;28;20042;-67
2022/08/23 01:14:24;;;;;;;5.78;4.28;;;;;;;19.19;68.15;101349.78;10316110;28;20061;-68
2022/08/23 01:19:31;;;;;;;5.38;3.58;;;;;;;19.23;67.39;101354.53;10316441;28;20037;-68
2022/08/23 01:24:31;;;;;;;;;;;;;;;19.27;68.03;101358.47;10301354;28;20038;-67
2022/08/23 01:29:32;;;;;;;23.10;4.97;;;;;;;19.26;69.49;101356.78;10315734;28;19909;-67
2022/08/23 01:34:33;;;;;;;6.47;3.75;;;;;;;19.25;68.46;101349.66;10315710;28;20061;-67
2022/08/23 01:39:34;;;;;;;9.57;4.43;;;;;;;19.39;67.95;101354.84;10332894;28;20401;-67
2022/08/23 01:44:34;;;;;;;5.45;4.50;;;;;;;19.46;67.47;101358.28;10332933;28;20027;-68
2022/08/23 01:49:35;;;;;;;8.43;4.47;;;;;;;19.49;67.63;101344.88;10316632;28;20054;-68
2022/08/23 01:54:35;;;;;;;23.02;6.10;;;;;;;19.48;68.27;101339.63;10332720;28;20458;-67
2022/08/23 01:59:36;;;;;;;9.15;4.65;;;;;;;19.49;68.38;101335.81;10315748;28;20042;-69
2022/08/23 02:04:37;;;;;;;11.82;5.70;;;;;;;19.59;68.18;101338.75;10334355;28;20114;-66
2022/08/23 02:09:37;;;;;;;9.00;4.70;;;;;;;19.56;68.57;101339.25;10339836;28;20026;-66
2022/08/23 02:14:40;;;;;;;6.30;4.05;;;;;;;19.50;69.95;101334.75;10322484;28;20285;-68
2022/08/23 02:19:42;;;;;;;6.38;4.57;;;;;;;19.54;69.78;101337.84;10339511;28;20081;-67
2022/08/23 02:24:44;;;;;;;14.40;5.45;;;;;;;19.55;69.13;101336.75;10339420;28;20138;-68
2022/08/23 02:29:45;;;;;;;5.80;4.72;;;;;;;19.62;68.83;101338.28;10339258;28;20058;-67
2022/08/23 02:34:45;;;;;;;6.30;4.60;;;;;;;19.65;68.42;101332.28;10322266;28;20315;-67
2022/08/23 02:39:46;;;;;;;18.55;5.47;;;;;;;19.63;68.36;101342.69;10305719;28;20540;-68
2022/08/23 02:44:47;;;;;;;10.95;5.38;;;;;;;19.64;68.26;101343.53;10339318;28;20031;-67
2022/08/23 02:49:47;;;;;;;10.45;6.10;;;;;;;19.64;67.78;101347.13;10322458;28;20385;-67
2022/08/23 02:54:48;;;;;;;6.97;4.13;;;;;;;19.68;67.85;101358.44;10341155;28;20030;-67
2022/08/23 02:59:49;;;;;;;10.75;5.05;;;;;;;19.65;67.69;101351.53;10321618;28;20041;-67
2022/08/23 03:04:49;;;;;;;11.88;4.85;;;;;;;19.60;67.60;101345.09;10337707;28;20027;-67
2022/08/23 03:09:50;;;;;;;5.15;4.55;;;;;;;19.70;67.83;101359.03;10337410;28;20031;-67
2022/08/23 03:14:50;;;;;;;12.48;5.68;;;;;;;19.67;67.79;101359.53;10336667;28;20085;-67
2022/08/23 03:19:51;;;;;;;4.95;3.72;;;;;;;19.71;68.02;101358.78;10336948;28;20028;-67
2022/08/23 03:24:51;;;;;;;6.13;4.80;;;;;;;19.68;68.29;101362.00;10319713;28;20026;-67
2022/08/23 03:29:52;;;;;;;3.92;3.63;;;;;;;19.66;68.07;101352.38;10336975;28;20034;-67
2022/08/23 03:34:52;;;;;;;4.65;4.22;;;;;;;19.59;67.87;101354.38;10336744;28;20034;-67
2022/08/23 03:39:53;;;;;;;7.07;5.15;;;;;;;19.47;68.11;101365.44;10305284;28;20039;-67
2022/08/23 03:44:53;;;;;;;4.60;4.20;;;;;;;19.30;68.19;101362.63;10318977;28;20038;-66
2022/08/23 03:49:55;;;;;;;6.57;4.85;;;;;;;19.17;68.14;101376.66;10336381;28;20435;-67
2022/08/23 03:54:56;;;;;;;7.88;5.07;;;;;;;19.03;68.42;101373.34;10336251;28;20034;-67
2022/08/23 03:59:58;;;;;;;7.45;4.72;;;;;;;18.89;68.36;101380.16;10335756;28;20378;-67
2022/08/23 04:04:59;;;;;;;9.73;5.53;;;;;;;18.67;68.71;101385.44;10318472;28;20133;-67
2022/08/23 04:09:59;;;;;;;10.35;5.03;;;;;;;18.50;68.83;101379.81;10335473;28;20034;-67
2022/08/23 04:15:00;;;;;;;6.07;5.47;;;;;;;18.36;69.63;101377.31;10336688;28;20088;-67
2022/08/23 04:20:01;;;;;;;10.30;5.40;;;;;;;18.31;69.72;101390.06;10336781;28;20422;-68
2022/08/23 04:25:03;;;;;;;15.88;6.70;;;;;;;18.24;69.78;101392.91;10334824;28;20026;-68
2022/08/23 04:30:04;;;;;;;22.70;5.90;;;;;;;18.21;70.00;101393.38;10316610;28;20442;-67
2022/08/23 04:35:05;;;;;;;10.90;5.90;;;;;;;18.15;69.71;101375.13;10318376;28;20085;-67
2022/08/23 04:45:26;;;;;;;16.98;6.70;;;;;;;18.25;70.70;101383.63;10333555;28;20389;-67
2022/08/23 04:50:26;;;;;;;7.28;6.07;;;;;;;18.29;70.68;101394.97;10334024;28;20023;-67
2022/08/23 04:55:27;;;;;;;8.32;5.70;;;;;;;18.26;70.57;101392.69;10335465;28;20096;-66
2022/08/23 05:00:28;;;;;;;7.35;6.13;;;;;;;18.17;70.64;101408.63;10316876;28;20105;-67
2022/08/23 05:05:28;;;;;;;6.82;6.18;;;;;;;18.13;71.14;101415.66;10315854;28;20042;-66
2022/08/23 05:10:28;;;;;;;10.63;5.65;;;;;;;18.08;71.26;101412.78;10315571;28;20037;-66
2022/08/23 05:15:29;;;;;;;12.75;7.15;;;;;;;18.07;71.29;101414.69;10334694;28;20031;-67
2022/08/23 05:20:30;;;;;;;10.77;7.47;;;;;;;18.11;71.39;101413.16;10318398;28;20034;-69
2022/08/23 05:25:48;;;;;;;11.35;8.23;;;;;;;18.22;71.43;101417.00;10334197;28;20072;-67
2022/08/23 05:31:01;;;;;;;18.02;7.93;;;;;;;18.29;72.07;101405.91;10317106;28;20034;-67
2022/08/23 05:36:02;;;;;;;13.23;7.65;;;;;;;18.44;71.61;101420.00;10333608;28;20105;-67
2022/08/23 05:41:02;;;;;;;16.17;7.93;;;;;;;18.67;71.67;101426.59;10320332;28;20054;-67
2022/08/23 05:46:11;;;;;;;14.32;7.78;;;;;;;18.87;72.14;101426.25;10340997;28;20457;-66
2022/08/23 05:51:15;;;;;;;14.57;8.90;;;;;;;20.13;71.19;101427.16;10325093;28;20109;-67
2022/08/23 05:56:28;;;;;;;21.33;9.98;;;;;;;21.79;70.92;101443.84;10323229;28;20026;-72
2022/08/23 06:01:28;;;;;;;15.20;8.65;;;;;;;23.40;69.28;101435.44;10341056;28;20031;-72
2022/08/23 06:06:30;;;;;;;16.33;9.40;;;;;;;24.74;67.62;101432.59;10307755;28;20030;-72
2022/08/23 06:11:31;;;;;;;15.00;8.25;;;;;;;25.04;67.76;101417.00;10340475;28;20072;-72
2022/08/23 06:16:33;;;;;;;16.73;9.18;;;;;;;25.16;67.37;101425.03;10323097;28;20061;-72
2022/08/23 06:21:34;;;;;;;23.80;8.73;;;;;;;25.69;66.73;101419.78;10198651;28;20503;-75
2022/08/23 06:26:40;;;;;;;11.48;8.82;;;;;;;26.59;65.65;101422.19;10242846;28;20039;-74
2022/08/23 06:31:44;;;;;;;15.98;8.32;;;;;;;26.84;66.67;101426.66;10243473;29;20023;-73
2022/08/23 06:36:46;;;;;;;15.00;5.88;;;;;;;27.23;66.08;101424.84;10226585;29;20411;-76
2022/08/23 06:41:49;;;;;;;4.65;3.83;;;;;;;27.53;65.22;101432.78;10281144;28;20053;-72
2022/08/23 06:46:50;;;;;;;9.45;4.15;;;;;;;28.91;63.49;101419.44;10299116;28;20506;-72
2022/08/23 06:51:52;;;;;;;5.28;4.03;;;;;;;28.22;64.18;101432.34;10298771;28;20031;-75
2022/08/23 06:56:52;;;;;;;6.28;4.32;;;;;;;28.01;63.27;101432.66;10298465;28;20454;-72
2022/08/23 07:01:55;;;;;;;9.73;3.40;;;;;;;27.79;64.51;101438.03;10297561;28;20034;-74
2022/08/23 07:06:56;;;;;;;5.90;3.92;;;;;;;28.96;62.26;101432.44;10281769;28;20058;-74
2022/08/23 07:11:57;;;;;;;13.82;4.13;;;;;;;28.92;62.22;101437.81;10298057;28;20034;-73
2022/08/23 07:17:00;;;;;;;3.55;3.25;;;;;;;30.32;60.67;101440.09;10281228;28;20023;-74
2022/08/23 07:22:01;;;;;;;9.55;4.10;;;;;;;28.95;62.01;101445.56;10296350;28;20035;-73
2022/08/23 07:27:08;;;;;;;4.40;2.83;;;;;;;27.81;63.24;101453.28;10280792;28;20058;-73
2022/08/23 07:32:09;;;;;;;4.75;3.83;;;;;;;27.44;64.00;101453.22;10297602;28;20059;-73
2022/08/23 07:37:10;;;;;;;4.45;3.58;;;;;;;27.39;64.13;101454.13;10295635;28;20426;-73
2022/08/23 07:42:10;;;;;;;4.22;3.83;;;;;;;27.68;63.35;101455.97;10279987;28;20074;-73
2022/08/23 07:47:11;;;;;;;3.78;3.35;;;;;;;28.04;62.43;101459.09;10296353;28;20043;-74
2022/08/23 07:52:14;;;;;;;8.65;3.33;;;;;;;27.74;62.48;101472.28;10294716;28;20058;-73
2022/08/23 07:57:16;;;;;;;5.88;3.22;;;;;;;28.15;61.22;101468.94;10279279;28;20116;-74
2022/08/23 08:02:16;;;;;;;5.07;2.47;;;;;;;28.69;60.26;101475.06;10278151;28;20040;-74
2022/08/23 08:07:17;;;;;;;4.70;3.03;;;;;;;29.84;57.73;101474.19;10295094;28;20394;-73
2022/08/23 08:12:17;;;;;;;2.38;2.28;;;;;;;29.65;57.48;101482.69;10294701;28;20035;-74
2022/08/23 08:17:18;;;;;;;5.95;2.50;;;;;;;29.26;58.49;101495.19;10294432;28;20114;-73
2022/08/23 08:22:19;;;;;;;3.78;2.13;;;;;;;28.81;56.14;101497.66;10278311;28;20034;-73
2022/08/23 08:27:22;;;;;;;2.38;1.77;;;;;;;28.50;58.28;101495.44;10278868;28;20494;-74
2022/08/23 08:32:23;;;;;;;2.83;1.60;;;;;;;28.56;58.35;101503.69;10295405;28;20030;-73
2022/08/23 08:37:24;;;;;;;4.72;2.30;;;;;;;28.44;58.11;101488.28;10277698;28;20125;-73
2022/08/23 08:42:31;;;;;;;1.50;1.50;;;;;;;28.23;58.76;101504.44;10293620;28;20086;-73
2022/08/23 08:47:34;;;;;;;2.80;2.25;;;;;;;27.86;59.42;101504.47;10293854;28;20085;-73
2022/08/23 08:52:44;;;;;;;3.17;1.85;;;;;;;27.92;59.52;101498.53;10294080;28;20562;-73
2022/08/23 08:57:46;;;;;;;2.53;1.80;;;;;;;27.87;59.31;101503.34;10293565;28;20494;-73
2022/08/23 09:02:46;;;;;;;4.53;2.13;;;;;;;28.15;59.31;101512.69;10292740;28;20130;-73
2022/08/23 09:08:05;;;;;;;4.15;2.88;;;;;;;28.13;58.32;101512.16;10292232;28;20030;-73
2022/08/23 09:13:30;;;;;;;2.40;2.17;;;;;;;28.02;58.38;101517.88;10294128;28;20364;-73
2022/08/23 09:18:34;;;;;;;3.58;2.13;;;;;;;27.95;58.85;101514.63;10302342;28;20035;-73
2022/08/23 09:23:45;;;;;;;2.28;1.88;;;;;;;29.42;56.17;101518.88;10302148;28;20042;-73
2022/08/23 09:28:46;;;;;;;1.95;1.85;;;;;;;31.17;53.72;101516.41;10301919;28;20039;-73
2022/08/23 09:33:46;;;;;;;1.67;1.58;;;;;;;31.11;54.21;101516.88;10283544;28;20101;-73
2022/08/23 09:38:55;;;;;;;2.42;1.67;;;;;;;30.67;53.19;101508.22;10301381;28;20140;-73
2022/08/23 09:43:57;;;;;;;1.83;1.73;;;;;;;31.60;52.26;101517.78;10299712;28;20082;-75
2022/08/23 09:49:00;;;;;;;4.38;1.77;;;;;;;32.04;50.13;101507.50;10283923;28;20035;-79
2022/08/23 09:54:24;;;;;;;8.20;1.48;;;;;;;30.96;49.50;101516.16;10283307;28;20062;-78
2022/08/23 10:05:39;;;;;;;1.73;1.40;;;;;;;30.32;53.18;101502.41;10256185;29;20035;-73
2022/08/23 10:10:45;;;;;;;2.38;1.67;;;;;;;30.55;52.57;101505.19;10250616;28;20039;-72
2022/08/23 10:16:07;;;;;;;7.65;1.90;;;;;;;32.02;47.43;101499.41;10300561;28;20066;-73
2022/08/23 10:21:17;;;;;;;5.60;2.13;;;;;;;32.37;47.32;101491.81;10282681;28;20521;-72
2022/08/23 10:26:32;;;;;;;9.43;2.50;;;;;;;32.89;45.84;101488.94;10297326;28;20041;-74
2022/08/23 10:31:46;;;;;;;3.17;2.40;;;;;;;32.10;44.49;101490.19;10283573;28;20023;-79
2022/08/23 10:37:05;;;;;;;9.48;2.75;;;;;;;33.11;44.35;101493.50;10284216;28;20034;-75
2022/08/23 10:42:33;;;;;;;2.13;2.00;;;;;;;33.03;40.27;101490.75;10298599;28;20043;-73
2022/08/23 10:47:48;;;;;;;6.32;2.13;;;;;;;32.25;41.88;101493.66;10298202;28;20042;-73
2022/08/23 10:53:11;;;;;;;11.32;2.40;;;;;;;33.55;43.68;101490.50;10281257;28;20434;-71
2022/08/23 10:58:16;;;;;;;5.72;1.80;;;;;;;33.86;42.76;101483.72;10298611;28;20030;-72
2022/08/23 11:03:46;;;;;;;1.92;1.80;;;;;;;32.12;42.64;101490.69;10282726;28;20038;-76
2022/08/23 11:08:47;;;;;;;6.28;2.15;;;;;;;31.43;45.66;101491.38;10279351;28;20192;-71
2022/08/23 11:13:51;;;;;;;2.33;2.05;;;;;;;32.67;44.03;101493.94;10296747;28;20101;-73
2022/08/23 11:18:53;;;;;;;3.53;2.42;;;;;;;32.23;42.74;101495.94;10281450;28;20030;-77
2022/08/23 11:23:57;;;;;;;8.50;2.05;;;;;;;33.65;41.92;101490.13;10280111;28;20037;-75
2022/08/23 11:29:19;;;;;;;5.57;2.63;;;;;;;34.18;40.54;101485.78;10296774;28;20370;-76
2022/08/23 11:34:24;;;;;;;2.42;2.25;;;;;;;35.01;41.07;101500.03;10298262;28;20391;-75
2022/08/23 11:39:25;;;;;;;4.25;2.08;;;;;;;34.39;42.40;101508.22;10278913;28;20058;-75
2022/08/23 11:44:32;;;;;;;6.88;2.53;;;;;;;34.68;40.68;101510.13;10295390;28;20483;-75
2022/08/23 11:50:11;;;;;;;5.13;3.80;;;;;;;34.98;39.15;101509.97;10281245;28;20045;-75
2022/08/23 11:55:45;;;;;;;4.93;3.35;;;;;;;33.86;42.12;101501.38;10291859;28;20043;-74
2022/08/23 12:00:48;;;;;;;3.53;2.08;;;;;;;33.59;41.49;101508.31;10296772;28;20042;-76
2022/08/23 12:05:52;;;;;;;4.45;3.97;;;;;;;34.56;40.52;101506.44;10296335;28;20054;-75
2022/08/23 12:10:57;;;;;;;7.32;3.75;;;;;;;33.41;42.68;101504.78;10295648;28;20023;-75
2022/08/23 12:16:14;;;;;;;9.27;3.33;;;;;;;33.10;42.91;101500.28;10296173;28;20027;-73
2022/08/23 12:21:33;;;;;;;3.78;3.45;;;;;;;32.64;44.73;101512.25;10294655;28;20497;-73
2022/08/23 12:26:37;;;;;;;2.60;2.40;;;;;;;31.86;46.48;101518.66;10295590;28;20027;-72
2022/08/23 12:32:02;;;;;;;5.22;3.05;;;;;;;31.30;46.11;101514.66;10294308;28;20089;-73
2022/08/23 12:37:19;;;;;;;4.87;2.77;;;;;;;32.23;45.24;101522.00;10294133;28;20089;-74
2022/08/23 12:42:31;;;;;;;3.25;2.95;;;;;;;31.98;45.97;101531.22;10294137;28;20431;-74
2022/08/23 12:47:32;;;;;;;3.38;3.08;;;;;;;32.21;46.16;101523.50;10292421;28;20038;-72
2022/08/23 12:52:33;;;;;;;3.88;3.10;;;;;;;32.73;45.52;101515.88;10293085;28;20493;-74
2022/08/23 12:57:36;;;;;;;8.25;4.82;;;;;;;33.34;45.49;101524.09;10277509;28;20031;-74
2022/08/23 13:02:36;;;;;;;6.55;5.00;;;;;;;33.48;45.69;101505.06;10277521;28;20023;-74
2022/08/23 13:07:37;;;;;;;9.60;3.45;;;;;;;33.43;45.90;101508.06;10277839;28;20441;-74
2022/08/23 13:12:38;;;;;;;4.10;3.70;;;;;;;33.14;45.26;101508.03;10277709;28;20414;-73
2022/08/23 13:17:39;;;;;;;6.85;4.25;;;;;;;33.30;45.67;101500.69;10292009;28;20035;-74
2022/08/23 13:23:01;;;;;;;9.45;4.60;;;;;;;33.20;44.25;101501.06;10293583;28;20057;-73
2022/08/23 13:28:23;;;;;;;7.53;6.82;;;;;;;33.06;40.78;101490.09;10277354;28;20093;-72
2022/08/23 13:33:23;;;;;;;6.88;3.92;;;;;;;32.55;43.59;101481.44;10292667;28;20049;-73
2022/08/23 13:38:29;;;;;;;5.22;4.13;;;;;;;32.92;43.53;101486.63;10293290;28;20295;-74
2022/08/23 13:43:45;;;;;;;8.40;4.00;;;;;;;33.28;43.65;101486.16;10276464;28;20063;-73
2022/08/23 13:48:54;;;;;;;13.13;3.92;;;;;;;32.82;43.10;101485.00;10291300;28;20054;-73
2022/08/23 13:53:56;;;;;;;12.40;4.85;;;;;;;33.44;44.67;101484.44;10275625;28;20470;-71
2022/08/23 13:59:02;;;;;;;3.67;3.38;;;;;;;33.46;44.06;101486.91;10291942;28;20077;-73
2022/08/23 14:04:02;;;;;;;6.60;4.45;;;;;;;33.16;43.48;101500.09;10299130;28;20045;-73
2022/08/23 14:09:05;;;;;;;29.05;4.80;;;;;;;32.97;43.99;101495.72;10299519;28;20034;-73
2022/08/23 14:14:05;;;;;;;4.30;3.90;;;;;;;32.71;43.16;101506.97;10300315;28;20031;-74
2022/08/23 14:19:08;;;;;;;5.18;3.83;;;;;;;32.50;43.43;101504.03;10299489;28;20488;-73
2022/08/23 14:24:08;;;;;;;4.97;4.43;;;;;;;32.42;43.70;101510.47;10282582;28;20459;-71
2022/08/23 14:29:13;;;;;;;3.40;3.10;;;;;;;32.15;46.07;101508.81;10299272;28;20038;-72
2022/08/23 14:34:16;;;;;;;3.73;3.03;;;;;;;31.96;47.47;101503.53;10298446;28;20027;-72
2022/08/23 14:39:20;;;;;;;8.57;5.25;;;;;;;31.64;47.58;101510.38;10299358;28;20046;-71
2022/08/23 14:44:21;;;;;;;3.83;3.50;;;;;;;31.12;48.31;101510.16;10282428;28;20098;-71
2022/08/23 14:49:21;;;;;;;2.95;2.40;;;;;;;30.93;49.01;101516.00;10297362;28;20041;-71
2022/08/23 14:54:23;;;;;;;5.47;3.97;;;;;;;30.92;49.43;101515.16;10298539;28;20117;-71
2022/08/23 14:59:24;;;;;;;7.65;4.65;;;;;;;30.68;49.86;101526.66;10282082;28;20043;-71
2022/08/23 15:04:24;;;;;;;3.10;2.90;;;;;;;30.15;50.92;101516.16;10297849;28;20453;-71
2022/08/23 15:09:25;;;;;;;4.43;3.72;;;;;;;29.28;52.04;101517.19;10298265;28;20066;-71
2022/08/23 15:14:26;;;;;;;4.82;3.92;;;;;;;28.72;52.57;101519.03;10297410;28;20485;-71
2022/08/23 15:19:26;;;;;;;5.97;4.60;;;;;;;28.62;52.44;101527.56;10280620;28;20034;-71
2022/08/23 15:24:27;;;;;;;4.50;4.20;;;;;;;28.26;52.86;101516.94;10264978;28;20130;-71
2022/08/23 15:29:27;;;;;;;5.47;4.43;;;;;;;27.83;53.17;101516.19;10297917;28;20051;-71
2022/08/23 15:34:28;;;;;;;4.07;3.75;;;;;;;27.48;54.78;101519.09;10295337;28;20489;-71
2022/08/23 15:39:29;;;;;;;4.40;3.63;;;;;;;27.30;54.18;101514.31;10296845;28;20503;-69
2022/08/23 15:44:29;;;;;;;5.63;3.35;;;;;;;27.21;53.80;101510.50;10297016;28;20163;-71
2022/08/23 15:49:30;;;;;;;3.95;2.72;;;;;;;26.94;55.28;101509.09;10281000;28;20031;-71
2022/08/23 15:54:31;;;;;;;3.38;3.10;;;;;;;26.81;55.66;101501.44;10279227;28;20449;-71
2022/08/23 15:59:33;;;;;;;4.38;2.35;;;;;;;26.74;56.26;101499.00;10296630;28;20030;-71
2022/08/23 16:04:35;;;;;;;5.57;3.85;;;;;;;26.58;56.94;101503.88;10294573;28;20121;-70
2022/08/23 16:09:36;;;;;;;4.55;3.80;;;;;;;26.43;57.82;101503.97;10294743;28;20070;-71
2022/08/23 16:14:37;;;;;;;3.42;3.10;;;;;;;26.30;58.18;101502.66;10294595;28;20066;-71
2022/08/23 16:19:37;;;;;;;3.33;3.03;;;;;;;26.21;58.67;101510.78;10295001;28;20026;-71
2022/08/23 16:24:38;;;;;;;4.10;3.10;;;;;;;26.21;58.45;101501.63;10294800;28;20033;-71
2022/08/23 16:29:39;;;;;;;4.22;3.00;;;;;;;26.21;59.05;101504.41;10280694;28;20379;-71
2022/08/23 16:34:40;;;;;;;11.90;3.90;;;;;;;26.10;58.93;101500.88;10294572;28;20541;-71
2022/08/23 16:39:43;;;;;;;4.28;3.78;;;;;;;26.05;59.14;101500.88;10260951;28;20115;-71
2022/08/23 16:44:43;;;;;;;4.22;3.10;;;;;;;25.97;59.60;101504.25;10279544;28;20038;-71
2022/08/23 16:49:44;;;;;;;10.25;3.90;;;;;;;25.90;59.62;101512.06;10294119;28;20039;-71
2022/08/23 16:54:45;;;;;;;5.15;3.75;;;;;;;25.82;60.04;101509.91;10292651;28;20109;-71
2022/08/23 16:59:46;;;;;;;3.05;2.85;;;;;;;25.68;60.49;101506.88;10293268;28;20082;-71
2022/08/23 17:04:47;;;;;;;2.63;2.42;;;;;;;25.56;61.77;101509.13;10293636;28;20110;-71
2022/08/23 17:09:47;;;;;;;3.83;3.05;;;;;;;25.44;61.86;101517.81;10293073;28;20066;-71
2022/08/23 17:14:50;;;;;;;3.75;3.35;;;;;;;25.35;62.21;101525.84;10276899;28;20034;-71
2022/08/23 17:19:51;;;;;;;3.35;3.15;;;;;;;25.19;62.42;101530.63;10277163;28;20089;-71
2022/08/23 17:24:51;;;;;;;4.22;3.55;;;;;;;25.10;62.78;101529.50;10292293;28;20037;-71
2022/08/23 17:29:52;;;;;;;2.85;2.30;;;;;;;25.02;62.18;101528.13;10294520;28;20042;-71
2022/08/23 17:34:52;;;;;;;2.60;2.50;;;;;;;24.93;62.51;101542.81;10295636;28;20255;-71
2022/08/23 17:39:53;;;;;;;4.63;3.70;;;;;;;24.81;62.57;101546.69;10301136;28;20187;-70
2022/08/23 17:44:53;;;;;;;7.70;5.45;;;;;;;24.72;62.47;101566.91;10284288;28;20059;-71
2022/08/23 17:49:54;;;;;;;6.45;3.95;;;;;;;24.64;62.43;101559.19;10300481;28;20455;-71
2022/08/23 17:54:55;;;;;;;9.40;3.78;;;;;;;24.55;62.60;101570.78;10284463;28;20106;-71
2022/08/23 17:59:55;;;;;;;3.35;3.15;;;;;;;24.48;63.88;101575.75;10300930;28;20031;-71
2022/08/23 18:04:56;;;;;;;8.38;3.42;;;;;;;24.36;64.23;101584.28;10301674;28;20113;-71
2022/08/23 18:09:57;;;;;;;3.15;2.47;;;;;;;24.18;64.88;101584.78;10301378;28;20042;-71
2022/08/23 18:14:57;;;;;;;7.32;3.25;;;;;;;24.04;65.87;101589.19;10299799;28;20043;-71
2022/08/23 18:19:58;;;;;;;3.53;2.08;;;;;;;23.92;65.76;101586.63;10298886;28;20041;-70
2022/08/23 18:24:59;;;;;;;2.35;2.13;;;;;;;23.81;65.15;101596.84;10299973;28;20127;-70
2022/08/23 18:29:59;;;;;;;2.58;2.22;;;;;;;23.73;65.13;101599.28;10300131;28;20035;-71
2022/08/23 18:35:00;;;;;;;2.47;1.92;;;;;;;23.58;66.20;101602.75;10298648;28;20118;-71
2022/08/23 18:40:00;;;;;;;2.92;2.15;;;;;;;23.44;65.59;101600.47;10297649;28;20070;-75
2022/08/23 18:45:01;;;;;;;3.30;1.67;;;;;;;23.29;65.41;101602.28;10297763;28;20037;-72
2022/08/23 18:50:03;;;;;;;2.03;1.92;;;;;;;23.17;65.46;101619.06;10298328;28;20467;-73
2022/08/23 18:55:04;;;;;;;6.93;2.88;;;;;;;23.03;65.84;101610.38;10298908;28;20077;-73
2022/08/23 19:00:08;;;;;;;3.65;2.45;;;;;;;22.92;66.17;101619.66;10266402;28;20046;-73
2022/08/23 19:05:09;;;;;;;1.58;1.48;;;;;;;22.84;65.26;101625.66;10297316;28;20111;-73
2022/08/23 19:10:09;;;;;;;4.70;2.22;;;;;;;22.72;65.12;101623.06;10298808;28;20031;-73
2022/08/23 19:15:11;;;;;;;1.77;1.67;;;;;;;22.61;65.28;101626.81;10298238;28;20348;-73
2022/08/23 19:20:12;;;;;;;3.10;2.58;;;;;;;22.50;64.98;101637.75;10265197;28;20434;-73
2022/08/23 19:25:12;;;;;;;1.73;1.63;;;;;;;22.42;65.60;101642.88;10296010;28;20035;-73
2022/08/23 19:30:14;;;;;;;2.20;2.10;;;;;;;22.35;65.75;101651.38;10297526;28;20504;-73
2022/08/23 19:35:15;;;;;;;2.50;2.03;;;;;;;22.25;65.86;101645.75;10298666;28;20034;-73
2022/08/23 19:40:16;;;;;;;1.35;1.35;;;;;;;22.15;67.46;101653.88;10296438;28;20055;-72
2022/08/23 19:45:20;;;;;;;12.05;2.53;;;;;;;22.11;66.88;101661.78;10295159;28;20501;-73
2022/08/23 19:50:28;;;;;;;16.27;2.22;;;;;;;22.03;66.60;101663.09;10296444;28;20046;-73
2022/08/23 19:55:30;;;;;;;1.42;1.33;;;;;;;22.00;66.61;101662.75;10296323;28;20038;-73
2022/08/23 20:00:30;;;;;;;5.18;1.98;;;;;;;21.93;66.96;101671.22;10294914;28;20038;-73
2022/08/23 20:05:33;;;;;;;6.38;2.10;;;;;;;21.87;67.04;101676.94;10279209;28;20489;-72
2022/08/23 20:10:34;;;;;;;2.85;1.70;;;;;;;21.80;67.08;101671.59;10295976;28;20030;-72
2022/08/23 20:15:36;;;;;;;8.00;2.65;;;;;;;21.72;67.18;101685.81;10277975;28;20027;-73
2022/08/23 21:47:54;;;;;;;2.40;2.25;;;;;;;20.49;72.88;101693.78;9949905;29;20400;-73
